sensor_id;sensor_type;location;lat;lon;timestamp;P1;durP1;ratioP1;P2;durP2;ratioP2
31206;SDS011;17834;52.992;8.856;2022-07-23T00:00:43;4.65;;;2.35;;
31206;SDS011;17834;52.992;8.856;2022-07-23T00:03:09;4.47;;;2.30;;
31206;SDS011;17834;52.992;8.856;2022-07-23T00:05:36;5.97;;;2.83;;
31206;SDS011;17834;52.992;8.856;2022-07-23T00:08:02;4.60;;;2.60;;
31206;SDS011;17834;52.992;8.856;2022-07-23T00:10:27;9.73;;;2.40;;
31206;SDS011;17834;52.992;8.856;2022-07-23T00:12:53;6.30;;;2.50;;
31206;SDS011;17834;52.992;8.856;2022-07-23T00:15:19;5.07;;;2.55;;
31206;SDS011;17834;52.992;8.856;2022-07-23T00:17:45;6.25;;;2.60;;
31206;SDS011;17834;52.992;8.856;2022-07-23T00:20:11;3.55;;;2.25;;
31206;SDS011;17834;52.992;8.856;2022-07-23T00:22:45;4.45;;;2.40;;
31206;SDS011;17834;52.992;8.856;2022-07-23T00:25:11;4.43;;;2.78;;
31206;SDS011;17834;52.992;8.856;2022-07-23T00:27:37;3.75;;;2.17;;
31206;SDS011;17834;52.992;8.856;2022-07-23T00:30:03;6.65;;;2.53;;
31206;SDS011;17834;52.992;8.856;2022-07-23T00:32:29;4.93;;;2.50;;
31206;SDS011;17834;52.992;8.856;2022-07-23T00:34:55;8.13;;;2.63;;
31206;SDS011;17834;52.992;8.856;2022-07-23T00:37:21;6.13;;;2.83;;
31206;SDS011;17834;52.992;8.856;2022-07-23T00:39:47;4.38;;;2.70;;
31206;SDS011;17834;52.992;8.856;2022-07-23T00:42:13;7.00;;;3.25;;
31206;SDS011;17834;52.992;8.856;2022-07-23T00:44:39;5.00;;;3.05;;
31206;SDS011;17834;52.992;8.856;2022-07-23T00:47:05;5.38;;;2.72;;
31206;SDS011;17834;52.992;8.856;2022-07-23T00:49:31;6.20;;;3.30;;
31206;SDS011;17834;52.992;8.856;2022-07-23T00:51:57;5.20;;;2.80;;
31206;SDS011;17834;52.992;8.856;2022-07-23T00:54:25;8.43;;;3.60;;
31206;SDS011;17834;52.992;8.856;2022-07-23T00:56:51;7.93;;;2.80;;
31206;SDS011;17834;52.992;8.856;2022-07-23T00:59:17;7.30;;;3.35;;
31206;SDS011;17834;52.992;8.856;2022-07-23T01:01:43;5.53;;;2.95;;
31206;SDS011;17834;52.992;8.856;2022-07-23T01:04:12;6.47;;;2.78;;
31206;SDS011;17834;52.992;8.856;2022-07-23T01:06:40;6.40;;;2.90;;
31206;SDS011;17834;52.992;8.856;2022-07-23T01:09:07;4.70;;;3.05;;
31206;SDS011;17834;52.992;8.856;2022-07-23T01:11:34;6.95;;;3.15;;
31206;SDS011;17834;52.992;8.856;2022-07-23T01:14:13;5.72;;;3.40;;
31206;SDS011;17834;52.992;8.856;2022-07-23T01:16:40;5.28;;;2.90;;
31206;SDS011;17834;52.992;8.856;2022-07-23T01:19:06;7.20;;;3.47;;
31206;SDS011;17834;52.992;8.856;2022-07-23T01:21:37;4.50;;;2.78;;
31206;SDS011;17834;52.992;8.856;2022-07-23T01:24:04;6.32;;;3.17;;
31206;SDS011;17834;52.992;8.856;2022-07-23T01:26:30;11.65;;;4.30;;
31206;SDS011;17834;52.992;8.856;2022-07-23T01:28:56;9.45;;;4.07;;
31206;SDS011;17834;52.992;8.856;2022-07-23T01:31:22;6.28;;;4.07;;
31206;SDS011;17834;52.992;8.856;2022-07-23T01:33:49;9.23;;;4.43;;
31206;SDS011;17834;52.992;8.856;2022-07-23T01:36:15;11.55;;;4.00;;
31206;SDS011;17834;52.992;8.856;2022-07-23T01:38:41;8.18;;;3.83;;
31206;SDS011;17834;52.992;8.856;2022-07-23T01:41:07;7.10;;;3.67;;
31206;SDS011;17834;52.992;8.856;2022-07-23T01:43:33;6.82;;;3.55;;
31206;SDS011;17834;52.992;8.856;2022-07-23T01:46:00;7.38;;;4.03;;
31206;SDS011;17834;52.992;8.856;2022-07-23T01:48:26;7.82;;;4.05;;
31206;SDS011;17834;52.992;8.856;2022-07-23T01:50:52;6.95;;;3.95;;
31206;SDS011;17834;52.992;8.856;2022-07-23T01:53:18;7.65;;;4.07;;
31206;SDS011;17834;52.992;8.856;2022-07-23T01:55:44;9.88;;;4.78;;
31206;SDS011;17834;52.992;8.856;2022-07-23T01:58:10;7.43;;;4.28;;
31206;SDS011;17834;52.992;8.856;2022-07-23T02:00:36;8.90;;;4.47;;
31206;SDS011;17834;52.992;8.856;2022-07-23T02:03:03;10.23;;;4.32;;
31206;SDS011;17834;52.992;8.856;2022-07-23T02:05:29;11.93;;;4.97;;
31206;SDS011;17834;52.992;8.856;2022-07-23T02:07:56;9.20;;;4.75;;
31206;SDS011;17834;52.992;8.856;2022-07-23T02:10:22;12.23;;;5.10;;
31206;SDS011;17834;52.992;8.856;2022-07-23T02:12:49;9.77;;;4.53;;
31206;SDS011;17834;52.992;8.856;2022-07-23T02:15:15;8.30;;;4.00;;
31206;SDS011;17834;52.992;8.856;2022-07-23T02:17:41;7.15;;;4.00;;
31206;SDS011;17834;52.992;8.856;2022-07-23T02:20:08;5.78;;;3.78;;
31206;SDS011;17834;52.992;8.856;2022-07-23T02:22:34;9.10;;;4.47;;
31206;SDS011;17834;52.992;8.856;2022-07-23T02:25:01;7.38;;;3.92;;
31206;SDS011;17834;52.992;8.856;2022-07-23T02:27:27;7.90;;;4.38;;
31206;SDS011;17834;52.992;8.856;2022-07-23T02:29:53;11.10;;;4.78;;
31206;SDS011;17834;52.992;8.856;2022-07-23T02:32:19;6.10;;;3.78;;
31206;SDS011;17834;52.992;8.856;2022-07-23T02:34:49;12.70;;;4.82;;
31206;SDS011;17834;52.992;8.856;2022-07-23T02:37:15;10.30;;;4.28;;
31206;SDS011;17834;52.992;8.856;2022-07-23T02:39:41;7.28;;;3.67;;
31206;SDS011;17834;52.992;8.856;2022-07-23T02:42:07;8.73;;;4.55;;
31206;SDS011;17834;52.992;8.856;2022-07-23T02:44:33;8.95;;;4.70;;
31206;SDS011;17834;52.992;8.856;2022-07-23T02:47:00;8.63;;;4.40;;
31206;SDS011;17834;52.992;8.856;2022-07-23T02:49:26;8.23;;;4.93;;
31206;SDS011;17834;52.992;8.856;2022-07-23T02:51:52;7.97;;;4.10;;
31206;SDS011;17834;52.992;8.856;2022-07-23T02:54:18;7.05;;;4.32;;
31206;SDS011;17834;52.992;8.856;2022-07-23T02:56:44;11.63;;;4.40;;
31206;SDS011;17834;52.992;8.856;2022-07-23T02:59:11;9.45;;;4.70;;
31206;SDS011;17834;52.992;8.856;2022-07-23T03:01:37;10.15;;;4.40;;
31206;SDS011;17834;52.992;8.856;2022-07-23T03:04:03;12.68;;;4.18;;
31206;SDS011;17834;52.992;8.856;2022-07-23T03:06:29;12.38;;;4.97;;
31206;SDS011;17834;52.992;8.856;2022-07-23T03:08:55;12.48;;;4.90;;
31206;SDS011;17834;52.992;8.856;2022-07-23T03:11:21;7.50;;;4.35;;
31206;SDS011;17834;52.992;8.856;2022-07-23T03:13:47;6.82;;;4.40;;
31206;SDS011;17834;52.992;8.856;2022-07-23T03:16:13;11.40;;;4.55;;
31206;SDS011;17834;52.992;8.856;2022-07-23T03:18:39;5.70;;;3.63;;
31206;SDS011;17834;52.992;8.856;2022-07-23T03:21:06;9.77;;;4.45;;
31206;SDS011;17834;52.992;8.856;2022-07-23T03:23:32;5.93;;;4.03;;
31206;SDS011;17834;52.992;8.856;2022-07-23T03:25:58;6.97;;;3.83;;
31206;SDS011;17834;52.992;8.856;2022-07-23T03:28:24;7.57;;;3.70;;
31206;SDS011;17834;52.992;8.856;2022-07-23T03:30:50;9.68;;;4.93;;
31206;SDS011;17834;52.992;8.856;2022-07-23T03:33:17;11.02;;;5.05;;
31206;SDS011;17834;52.992;8.856;2022-07-23T03:35:44;9.60;;;5.05;;
31206;SDS011;17834;52.992;8.856;2022-07-23T03:38:10;10.88;;;4.38;;
31206;SDS011;17834;52.992;8.856;2022-07-23T03:40:36;10.65;;;4.68;;
31206;SDS011;17834;52.992;8.856;2022-07-23T03:43:02;13.73;;;4.68;;
31206;SDS011;17834;52.992;8.856;2022-07-23T03:45:28;9.82;;;4.68;;
31206;SDS011;17834;52.992;8.856;2022-07-23T03:47:54;8.13;;;4.60;;
31206;SDS011;17834;52.992;8.856;2022-07-23T03:50:20;13.93;;;5.90;;
31206;SDS011;17834;52.992;8.856;2022-07-23T03:52:46;9.38;;;4.68;;
31206;SDS011;17834;52.992;8.856;2022-07-23T03:55:13;9.52;;;5.30;;
31206;SDS011;17834;52.992;8.856;2022-07-23T03:57:39;12.07;;;5.32;;
31206;SDS011;17834;52.992;8.856;2022-07-23T04:00:05;11.27;;;5.40;;
31206;SDS011;17834;52.992;8.856;2022-07-23T04:02:33;9.25;;;4.68;;
31206;SDS011;17834;52.992;8.856;2022-07-23T04:04:59;8.30;;;5.32;;
31206;SDS011;17834;52.992;8.856;2022-07-23T04:07:25;8.98;;;4.85;;
31206;SDS011;17834;52.992;8.856;2022-07-23T04:09:52;9.98;;;4.85;;
31206;SDS011;17834;52.992;8.856;2022-07-23T04:12:18;8.88;;;4.47;;
31206;SDS011;17834;52.992;8.856;2022-07-23T04:14:44;8.40;;;4.53;;
31206;SDS011;17834;52.992;8.856;2022-07-23T04:17:11;11.30;;;5.82;;
31206;SDS011;17834;52.992;8.856;2022-07-23T04:19:37;7.43;;;4.78;;
31206;SDS011;17834;52.992;8.856;2022-07-23T04:22:07;7.75;;;4.57;;
31206;SDS011;17834;52.992;8.856;2022-07-23T04:24:33;7.68;;;4.60;;
31206;SDS011;17834;52.992;8.856;2022-07-23T04:27:00;10.93;;;4.70;;
31206;SDS011;17834;52.992;8.856;2022-07-23T04:29:26;9.80;;;4.93;;
31206;SDS011;17834;52.992;8.856;2022-07-23T04:31:52;8.23;;;4.43;;
31206;SDS011;17834;52.992;8.856;2022-07-23T04:34:18;11.73;;;5.03;;
31206;SDS011;17834;52.992;8.856;2022-07-23T04:36:44;9.75;;;5.03;;
31206;SDS011;17834;52.992;8.856;2022-07-23T04:39:10;8.38;;;4.72;;
31206;SDS011;17834;52.992;8.856;2022-07-23T04:41:36;14.40;;;4.65;;
31206;SDS011;17834;52.992;8.856;2022-07-23T04:44:03;9.30;;;4.72;;
31206;SDS011;17834;52.992;8.856;2022-07-23T04:46:29;11.90;;;4.90;;
31206;SDS011;17834;52.992;8.856;2022-07-23T04:48:55;10.48;;;5.10;;
31206;SDS011;17834;52.992;8.856;2022-07-23T04:51:21;8.85;;;4.60;;
31206;SDS011;17834;52.992;8.856;2022-07-23T04:53:47;10.90;;;5.07;;
31206;SDS011;17834;52.992;8.856;2022-07-23T04:56:13;11.13;;;5.47;;
31206;SDS011;17834;52.992;8.856;2022-07-23T04:58:39;9.82;;;5.55;;
31206;SDS011;17834;52.992;8.856;2022-07-23T05:01:06;10.70;;;5.85;;
31206;SDS011;17834;52.992;8.856;2022-07-23T05:03:32;11.55;;;5.78;;
31206;SDS011;17834;52.992;8.856;2022-07-23T05:05:58;14.10;;;6.90;;
31206;SDS011;17834;52.992;8.856;2022-07-23T05:08:24;9.43;;;5.43;;
31206;SDS011;17834;52.992;8.856;2022-07-23T05:10:50;11.60;;;5.53;;
31206;SDS011;17834;52.992;8.856;2022-07-23T05:13:17;11.15;;;4.78;;
31206;SDS011;17834;52.992;8.856;2022-07-23T05:15:43;23.50;;;7.25;;
31206;SDS011;17834;52.992;8.856;2022-07-23T05:18:09;12.70;;;5.57;;
31206;SDS011;17834;52.992;8.856;2022-07-23T05:20:35;8.10;;;3.72;;
31206;SDS011;17834;52.992;8.856;2022-07-23T05:23:02;6.80;;;3.88;;
31206;SDS011;17834;52.992;8.856;2022-07-23T05:25:28;9.13;;;3.83;;
31206;SDS011;17834;52.992;8.856;2022-07-23T05:27:54;10.00;;;4.35;;
31206;SDS011;17834;52.992;8.856;2022-07-23T05:30:20;5.32;;;4.10;;
31206;SDS011;17834;52.992;8.856;2022-07-23T05:32:46;4.55;;;3.00;;
31206;SDS011;17834;52.992;8.856;2022-07-23T05:35:12;10.43;;;4.35;;
31206;SDS011;17834;52.992;8.856;2022-07-23T05:37:38;7.35;;;3.90;;
31206;SDS011;17834;52.992;8.856;2022-07-23T05:40:06;7.10;;;3.75;;
31206;SDS011;17834;52.992;8.856;2022-07-23T05:42:39;6.18;;;3.60;;
31206;SDS011;17834;52.992;8.856;2022-07-23T05:45:07;10.90;;;4.22;;
31206;SDS011;17834;52.992;8.856;2022-07-23T05:47:40;7.28;;;3.60;;
31206;SDS011;17834;52.992;8.856;2022-07-23T05:50:06;5.40;;;3.17;;
31206;SDS011;17834;52.992;8.856;2022-07-23T05:52:32;6.07;;;2.67;;
31206;SDS011;17834;52.992;8.856;2022-07-23T05:54:58;4.50;;;2.70;;
31206;SDS011;17834;52.992;8.856;2022-07-23T05:57:24;5.80;;;2.40;;
31206;SDS011;17834;52.992;8.856;2022-07-23T05:59:50;5.05;;;1.48;;
31206;SDS011;17834;52.992;8.856;2022-07-23T06:02:16;4.43;;;1.60;;
31206;SDS011;17834;52.992;8.856;2022-07-23T06:04:42;3.83;;;1.60;;
31206;SDS011;17834;52.992;8.856;2022-07-23T06:07:08;3.13;;;1.63;;
31206;SDS011;17834;52.992;8.856;2022-07-23T06:09:34;4.55;;;1.38;;
31206;SDS011;17834;52.992;8.856;2022-07-23T06:12:00;1.95;;;1.08;;
31206;SDS011;17834;52.992;8.856;2022-07-23T06:14:25;3.40;;;1.15;;
31206;SDS011;17834;52.992;8.856;2022-07-23T06:16:52;4.78;;;1.17;;
31206;SDS011;17834;52.992;8.856;2022-07-23T06:19:18;2.65;;;0.93;;
31206;SDS011;17834;52.992;8.856;2022-07-23T06:21:43;2.70;;;1.38;;
31206;SDS011;17834;52.992;8.856;2022-07-23T06:24:09;3.15;;;1.08;;
31206;SDS011;17834;52.992;8.856;2022-07-23T06:26:35;2.58;;;0.80;;
31206;SDS011;17834;52.992;8.856;2022-07-23T06:29:01;4.82;;;0.90;;
31206;SDS011;17834;52.992;8.856;2022-07-23T06:31:27;2.47;;;0.70;;
31206;SDS011;17834;52.992;8.856;2022-07-23T06:33:53;1.48;;;0.70;;
31206;SDS011;17834;52.992;8.856;2022-07-23T06:36:19;4.13;;;0.73;;
31206;SDS011;17834;52.992;8.856;2022-07-23T06:38:45;2.88;;;0.90;;
31206;SDS011;17834;52.992;8.856;2022-07-23T06:41:11;4.78;;;0.70;;
31206;SDS011;17834;52.992;8.856;2022-07-23T06:43:37;2.15;;;0.88;;
31206;SDS011;17834;52.992;8.856;2022-07-23T06:46:03;1.48;;;0.80;;
31206;SDS011;17834;52.992;8.856;2022-07-23T06:48:29;2.50;;;0.98;;
31206;SDS011;17834;52.992;8.856;2022-07-23T06:50:55;2.47;;;1.02;;
31206;SDS011;17834;52.992;8.856;2022-07-23T06:53:22;2.45;;;0.90;;
31206;SDS011;17834;52.992;8.856;2022-07-23T06:55:48;3.63;;;1.00;;
31206;SDS011;17834;52.992;8.856;2022-07-23T06:58:13;3.72;;;0.88;;
31206;SDS011;17834;52.992;8.856;2022-07-23T07:00:40;2.72;;;1.00;;
31206;SDS011;17834;52.992;8.856;2022-07-23T07:03:06;1.52;;;0.68;;
31206;SDS011;17834;52.992;8.856;2022-07-23T07:05:32;2.92;;;1.02;;
31206;SDS011;17834;52.992;8.856;2022-07-23T07:07:58;4.13;;;1.10;;
31206;SDS011;17834;52.992;8.856;2022-07-23T07:10:24;1.77;;;0.90;;
31206;SDS011;17834;52.992;8.856;2022-07-23T07:12:50;2.22;;;1.00;;
31206;SDS011;17834;52.992;8.856;2022-07-23T07:15:16;1.48;;;0.75;;
31206;SDS011;17834;52.992;8.856;2022-07-23T07:17:42;1.73;;;0.90;;
31206;SDS011;17834;52.992;8.856;2022-07-23T07:20:08;0.82;;;0.50;;
31206;SDS011;17834;52.992;8.856;2022-07-23T07:22:35;2.90;;;0.77;;
31206;SDS011;17834;52.992;8.856;2022-07-23T07:25:01;4.15;;;1.00;;
31206;SDS011;17834;52.992;8.856;2022-07-23T07:27:27;3.58;;;0.88;;
31206;SDS011;17834;52.992;8.856;2022-07-23T07:29:53;1.60;;;0.70;;
31206;SDS011;17834;52.992;8.856;2022-07-23T07:32:19;1.50;;;0.70;;
31206;SDS011;17834;52.992;8.856;2022-07-23T07:34:45;1.10;;;0.63;;
31206;SDS011;17834;52.992;8.856;2022-07-23T07:37:11;1.77;;;0.60;;
31206;SDS011;17834;52.992;8.856;2022-07-23T07:39:37;2.13;;;0.50;;
31206;SDS011;17834;52.992;8.856;2022-07-23T07:42:03;2.40;;;0.70;;
31206;SDS011;17834;52.992;8.856;2022-07-23T07:44:29;1.58;;;0.50;;
31206;SDS011;17834;52.992;8.856;2022-07-23T07:46:55;1.02;;;0.50;;
31206;SDS011;17834;52.992;8.856;2022-07-23T07:49:21;2.35;;;0.60;;
31206;SDS011;17834;52.992;8.856;2022-07-23T07:51:47;1.75;;;0.60;;
31206;SDS011;17834;52.992;8.856;2022-07-23T07:54:13;3.38;;;0.60;;
31206;SDS011;17834;52.992;8.856;2022-07-23T07:56:39;2.15;;;0.50;;
31206;SDS011;17834;52.992;8.856;2022-07-23T07:59:05;3.60;;;1.40;;
31206;SDS011;17834;52.992;8.856;2022-07-23T08:01:31;1.30;;;0.65;;
31206;SDS011;17834;52.992;8.856;2022-07-23T08:03:57;3.00;;;0.80;;
31206;SDS011;17834;52.992;8.856;2022-07-23T08:06:23;1.65;;;0.50;;
31206;SDS011;17834;52.992;8.856;2022-07-23T08:08:49;1.63;;;0.80;;
31206;SDS011;17834;52.992;8.856;2022-07-23T08:11:15;3.72;;;0.70;;
31206;SDS011;17834;52.992;8.856;2022-07-23T08:13:41;5.57;;;0.80;;
31206;SDS011;17834;52.992;8.856;2022-07-23T08:16:09;1.67;;;0.60;;
31206;SDS011;17834;52.992;8.856;2022-07-23T08:18:35;1.50;;;0.57;;
31206;SDS011;17834;52.992;8.856;2022-07-23T08:21:01;1.58;;;0.70;;
31206;SDS011;17834;52.992;8.856;2022-07-23T08:23:29;1.27;;;0.80;;
31206;SDS011;17834;52.992;8.856;2022-07-23T08:25:55;1.58;;;0.50;;
31206;SDS011;17834;52.992;8.856;2022-07-23T08:28:21;2.65;;;0.90;;
31206;SDS011;17834;52.992;8.856;2022-07-23T08:30:47;2.40;;;0.85;;
31206;SDS011;17834;52.992;8.856;2022-07-23T08:33:14;4.00;;;0.88;;
31206;SDS011;17834;52.992;8.856;2022-07-23T08:35:44;4.57;;;0.63;;
31206;SDS011;17834;52.992;8.856;2022-07-23T08:38:11;1.33;;;0.65;;
31206;SDS011;17834;52.992;8.856;2022-07-23T08:40:39;0.85;;;0.60;;
31206;SDS011;17834;52.992;8.856;2022-07-23T08:43:06;2.50;;;0.75;;
31206;SDS011;17834;52.992;8.856;2022-07-23T08:45:35;3.97;;;0.73;;
31206;SDS011;17834;52.992;8.856;2022-07-23T08:48:02;3.65;;;0.90;;
31206;SDS011;17834;52.992;8.856;2022-07-23T08:50:28;1.33;;;0.80;;
31206;SDS011;17834;52.992;8.856;2022-07-23T08:52:54;3.10;;;0.52;;
31206;SDS011;17834;52.992;8.856;2022-07-23T08:55:22;2.35;;;1.05;;
31206;SDS011;17834;52.992;8.856;2022-07-23T08:57:49;2.85;;;1.05;;
31206;SDS011;17834;52.992;8.856;2022-07-23T09:00:15;3.45;;;1.23;;
31206;SDS011;17834;52.992;8.856;2022-07-23T09:02:41;1.33;;;0.90;;
31206;SDS011;17834;52.992;8.856;2022-07-23T09:05:08;2.13;;;0.90;;
31206;SDS011;17834;52.992;8.856;2022-07-23T09:07:36;2.35;;;1.10;;
31206;SDS011;17834;52.992;8.856;2022-07-23T09:10:09;3.40;;;1.20;;
31206;SDS011;17834;52.992;8.856;2022-07-23T09:12:36;3.15;;;1.00;;
31206;SDS011;17834;52.992;8.856;2022-07-23T09:15:08;2.75;;;1.17;;
31206;SDS011;17834;52.992;8.856;2022-07-23T09:17:38;2.92;;;1.08;;
31206;SDS011;17834;52.992;8.856;2022-07-23T09:20:14;2.38;;;1.05;;
31206;SDS011;17834;52.992;8.856;2022-07-23T09:22:44;3.05;;;0.70;;
31206;SDS011;17834;52.992;8.856;2022-07-23T09:25:18;1.50;;;0.70;;
31206;SDS011;17834;52.992;8.856;2022-07-23T09:27:53;2.53;;;0.73;;
31206;SDS011;17834;52.992;8.856;2022-07-23T09:30:19;2.15;;;0.90;;
31206;SDS011;17834;52.992;8.856;2022-07-23T09:33:03;1.85;;;0.55;;
31206;SDS011;17834;52.992;8.856;2022-07-23T09:38:14;1.05;;;0.40;;
31206;SDS011;17834;52.992;8.856;2022-07-23T09:40:40;2.08;;;0.50;;
31206;SDS011;17834;52.992;8.856;2022-07-23T09:43:06;1.35;;;0.50;;
31206;SDS011;17834;52.992;8.856;2022-07-23T09:45:32;2.38;;;0.60;;
31206;SDS011;17834;52.992;8.856;2022-07-23T09:48:14;0.73;;;0.40;;
31206;SDS011;17834;52.992;8.856;2022-07-23T09:50:44;1.05;;;0.52;;
31206;SDS011;17834;52.992;8.856;2022-07-23T09:53:16;1.23;;;0.52;;
31206;SDS011;17834;52.992;8.856;2022-07-23T09:55:49;2.28;;;0.60;;
31206;SDS011;17834;52.992;8.856;2022-07-23T09:58:16;0.68;;;0.45;;
31206;SDS011;17834;52.992;8.856;2022-07-23T10:00:43;0.80;;;0.50;;
31206;SDS011;17834;52.992;8.856;2022-07-23T10:03:09;0.90;;;0.50;;
31206;SDS011;17834;52.992;8.856;2022-07-23T10:05:36;2.83;;;0.52;;
31206;SDS011;17834;52.992;8.856;2022-07-23T10:08:02;1.35;;;0.50;;
31206;SDS011;17834;52.992;8.856;2022-07-23T10:10:28;2.35;;;1.15;;
31206;SDS011;17834;52.992;8.856;2022-07-23T10:12:56;1.30;;;0.73;;
31206;SDS011;17834;52.992;8.856;2022-07-23T10:15:54;1.27;;;0.52;;
31206;SDS011;17834;52.992;8.856;2022-07-23T10:18:20;0.88;;;0.50;;
31206;SDS011;17834;52.992;8.856;2022-07-23T10:20:47;1.30;;;0.63;;
31206;SDS011;17834;52.992;8.856;2022-07-23T10:23:16;3.10;;;0.57;;
31206;SDS011;17834;52.992;8.856;2022-07-23T10:25:48;1.40;;;0.40;;
31206;SDS011;17834;52.992;8.856;2022-07-23T10:28:29;1.55;;;0.40;;
31206;SDS011;17834;52.992;8.856;2022-07-23T10:33:51;2.05;;;1.08;;
31206;SDS011;17834;52.992;8.856;2022-07-23T10:36:23;2.35;;;0.70;;
31206;SDS011;17834;52.992;8.856;2022-07-23T10:39:07;2.75;;;0.47;;
31206;SDS011;17834;52.992;8.856;2022-07-23T10:41:35;2.00;;;0.55;;
31206;SDS011;17834;52.992;8.856;2022-07-23T10:46:46;0.60;;;0.40;;
31206;SDS011;17834;52.992;8.856;2022-07-23T10:49:37;2.28;;;0.57;;
31206;SDS011;17834;52.992;8.856;2022-07-23T10:54:40;1.27;;;0.60;;
31206;SDS011;17834;52.992;8.856;2022-07-23T10:57:09;0.90;;;0.32;;
31206;SDS011;17834;52.992;8.856;2022-07-23T11:02:21;0.95;;;0.50;;
31206;SDS011;17834;52.992;8.856;2022-07-23T11:04:51;1.25;;;0.63;;
31206;SDS011;17834;52.992;8.856;2022-07-23T11:07:18;1.92;;;0.50;;
31206;SDS011;17834;52.992;8.856;2022-07-23T11:09:44;0.77;;;0.30;;
31206;SDS011;17834;52.992;8.856;2022-07-23T11:17:25;0.80;;;0.30;;
31206;SDS011;17834;52.992;8.856;2022-07-23T11:25:09;0.93;;;0.40;;
31206;SDS011;17834;52.992;8.856;2022-07-23T11:27:39;1.00;;;0.43;;
31206;SDS011;17834;52.992;8.856;2022-07-23T11:30:06;0.90;;;0.47;;
31206;SDS011;17834;52.992;8.856;2022-07-23T11:32:33;0.85;;;0.40;;
31206;SDS011;17834;52.992;8.856;2022-07-23T11:35:02;1.52;;;0.50;;
31206;SDS011;17834;52.992;8.856;2022-07-23T11:40:01;1.88;;;0.40;;
31206;SDS011;17834;52.992;8.856;2022-07-23T11:42:27;0.90;;;0.32;;
31206;SDS011;17834;52.992;8.856;2022-07-23T11:44:53;1.35;;;0.47;;
31206;SDS011;17834;52.992;8.856;2022-07-23T11:47:23;1.63;;;0.73;;
31206;SDS011;17834;52.992;8.856;2022-07-23T11:49:56;0.65;;;0.40;;
31206;SDS011;17834;52.992;8.856;2022-07-23T11:52:23;2.70;;;0.63;;
31206;SDS011;17834;52.992;8.856;2022-07-23T11:54:56;0.93;;;0.40;;
31206;SDS011;17834;52.992;8.856;2022-07-23T11:57:26;1.52;;;0.65;;
31206;SDS011;17834;52.992;8.856;2022-07-23T11:59:53;6.65;;;1.80;;
31206;SDS011;17834;52.992;8.856;2022-07-23T12:02:20;1.98;;;0.77;;
31206;SDS011;17834;52.992;8.856;2022-07-23T12:04:48;1.77;;;0.77;;
31206;SDS011;17834;52.992;8.856;2022-07-23T12:09:49;2.20;;;0.30;;
31206;SDS011;17834;52.992;8.856;2022-07-23T12:12:15;2.10;;;0.68;;
31206;SDS011;17834;52.992;8.856;2022-07-23T12:14:50;1.83;;;0.52;;
31206;SDS011;17834;52.992;8.856;2022-07-23T12:17:16;1.98;;;0.30;;
31206;SDS011;17834;52.992;8.856;2022-07-23T12:19:43;1.00;;;0.65;;
31206;SDS011;17834;52.992;8.856;2022-07-23T12:22:09;1.08;;;0.32;;
31206;SDS011;17834;52.992;8.856;2022-07-23T12:27:20;1.05;;;0.30;;
31206;SDS011;17834;52.992;8.856;2022-07-23T12:29:46;1.00;;;0.50;;
31206;SDS011;17834;52.992;8.856;2022-07-23T12:32:19;2.65;;;0.60;;
31206;SDS011;17834;52.992;8.856;2022-07-23T12:34:46;1.08;;;0.50;;
31206;SDS011;17834;52.992;8.856;2022-07-23T12:37:29;0.77;;;0.25;;
31206;SDS011;17834;52.992;8.856;2022-07-23T12:39:55;1.42;;;0.40;;
31206;SDS011;17834;52.992;8.856;2022-07-23T12:42:21;1.33;;;0.60;;
31206;SDS011;17834;52.992;8.856;2022-07-23T12:45:05;3.25;;;0.60;;
31206;SDS011;17834;52.992;8.856;2022-07-23T12:47:50;2.75;;;0.70;;
31206;SDS011;17834;52.992;8.856;2022-07-23T12:53:02;0.88;;;0.60;;
31206;SDS011;17834;52.992;8.856;2022-07-23T12:55:28;1.58;;;0.50;;
31206;SDS011;17834;52.992;8.856;2022-07-23T12:58:02;1.20;;;0.60;;
31206;SDS011;17834;52.992;8.856;2022-07-23T13:00:28;0.70;;;0.40;;
31206;SDS011;17834;52.992;8.856;2022-07-23T13:02:54;1.55;;;0.60;;
31206;SDS011;17834;52.992;8.856;2022-07-23T13:05:20;0.60;;;0.30;;
31206;SDS011;17834;52.992;8.856;2022-07-23T13:07:46;1.25;;;0.50;;
31206;SDS011;17834;52.992;8.856;2022-07-23T13:10:12;1.50;;;0.52;;
31206;SDS011;17834;52.992;8.856;2022-07-23T13:12:38;3.65;;;1.50;;
31206;SDS011;17834;52.992;8.856;2022-07-23T13:15:04;1.25;;;0.60;;
31206;SDS011;17834;52.992;8.856;2022-07-23T13:17:31;0.77;;;0.40;;
31206;SDS011;17834;52.992;8.856;2022-07-23T13:19:57;1.33;;;0.50;;
31206;SDS011;17834;52.992;8.856;2022-07-23T13:22:23;1.77;;;0.40;;
31206;SDS011;17834;52.992;8.856;2022-07-23T13:24:49;5.07;;;1.75;;
31206;SDS011;17834;52.992;8.856;2022-07-23T13:27:15;0.90;;;0.50;;
31206;SDS011;17834;52.992;8.856;2022-07-23T13:29:42;3.78;;;0.60;;
31206;SDS011;17834;52.992;8.856;2022-07-23T13:32:08;0.93;;;0.40;;
31206;SDS011;17834;52.992;8.856;2022-07-23T13:34:34;1.02;;;0.40;;
31206;SDS011;17834;52.992;8.856;2022-07-23T13:37:00;1.08;;;0.40;;
31206;SDS011;17834;52.992;8.856;2022-07-23T13:39:26;0.50;;;0.30;;
31206;SDS011;17834;52.992;8.856;2022-07-23T13:41:52;1.15;;;0.40;;
31206;SDS011;17834;52.992;8.856;2022-07-23T13:44:18;0.82;;;0.40;;
31206;SDS011;17834;52.992;8.856;2022-07-23T13:46:44;0.63;;;0.45;;
31206;SDS011;17834;52.992;8.856;2022-07-23T13:49:10;0.73;;;0.40;;
31206;SDS011;17834;52.992;8.856;2022-07-23T13:51:36;2.88;;;0.50;;
31206;SDS011;17834;52.992;8.856;2022-07-23T13:54:02;1.90;;;0.60;;
31206;SDS011;17834;52.992;8.856;2022-07-23T13:56:28;1.90;;;0.40;;
31206;SDS011;17834;52.992;8.856;2022-07-23T13:58:54;0.95;;;0.50;;
31206;SDS011;17834;52.992;8.856;2022-07-23T14:01:20;2.97;;;0.60;;
31206;SDS011;17834;52.992;8.856;2022-07-23T14:03:46;1.00;;;0.60;;
31206;SDS011;17834;52.992;8.856;2022-07-23T14:06:12;1.98;;;0.50;;
31206;SDS011;17834;52.992;8.856;2022-07-23T14:08:38;1.00;;;0.50;;
31206;SDS011;17834;52.992;8.856;2022-07-23T14:11:04;0.82;;;0.77;;
31206;SDS011;17834;52.992;8.856;2022-07-23T14:13:30;0.75;;;0.50;;
31206;SDS011;17834;52.992;8.856;2022-07-23T14:15:56;1.33;;;0.50;;
31206;SDS011;17834;52.992;8.856;2022-07-23T14:18:22;0.90;;;0.30;;
31206;SDS011;17834;52.992;8.856;2022-07-23T14:20:48;1.17;;;0.50;;
31206;SDS011;17834;52.992;8.856;2022-07-23T14:23:14;2.28;;;0.47;;
31206;SDS011;17834;52.992;8.856;2022-07-23T14:25:40;0.70;;;0.40;;
31206;SDS011;17834;52.992;8.856;2022-07-23T14:28:06;1.77;;;0.47;;
31206;SDS011;17834;52.992;8.856;2022-07-23T14:30:32;1.95;;;0.98;;
31206;SDS011;17834;52.992;8.856;2022-07-23T14:32:58;0.65;;;0.40;;
31206;SDS011;17834;52.992;8.856;2022-07-23T14:35:24;1.35;;;0.43;;
31206;SDS011;17834;52.992;8.856;2022-07-23T14:37:50;0.47;;;0.28;;
31206;SDS011;17834;52.992;8.856;2022-07-23T14:40:16;1.23;;;0.50;;
31206;SDS011;17834;52.992;8.856;2022-07-23T14:42:42;1.25;;;0.60;;
31206;SDS011;17834;52.992;8.856;2022-07-23T14:45:08;1.23;;;0.43;;
31206;SDS011;17834;52.992;8.856;2022-07-23T14:47:35;0.55;;;0.40;;
31206;SDS011;17834;52.992;8.856;2022-07-23T14:50:01;1.80;;;0.55;;
31206;SDS011;17834;52.992;8.856;2022-07-23T14:52:27;1.83;;;0.50;;
31206;SDS011;17834;52.992;8.856;2022-07-23T14:54:53;1.13;;;0.40;;
31206;SDS011;17834;52.992;8.856;2022-07-23T14:57:19;0.57;;;0.40;;
31206;SDS011;17834;52.992;8.856;2022-07-23T14:59:45;2.08;;;0.70;;
31206;SDS011;17834;52.992;8.856;2022-07-23T15:02:11;2.60;;;0.50;;
31206;SDS011;17834;52.992;8.856;2022-07-23T15:04:37;2.53;;;0.52;;
31206;SDS011;17834;52.992;8.856;2022-07-23T15:07:03;1.63;;;0.80;;
31206;SDS011;17834;52.992;8.856;2022-07-23T15:09:29;2.25;;;0.60;;
31206;SDS011;17834;52.992;8.856;2022-07-23T15:11:55;1.73;;;0.50;;
31206;SDS011;17834;52.992;8.856;2022-07-23T15:14:22;1.65;;;0.68;;
31206;SDS011;17834;52.992;8.856;2022-07-23T15:16:48;2.58;;;0.73;;
31206;SDS011;17834;52.992;8.856;2022-07-23T15:19:14;1.95;;;0.82;;